sensor_id;sensor_type;location;lat;lon;timestamp;temperature;humidity
62809;DHT22;48848;39.002;-94.584;2023-06-19T00:00:40;22.10;42.50
62809;DHT22;48848;39.002;-94.584;2023-06-19T00:03:07;22.10;42.40
62809;DHT22;48848;39.002;-94.584;2023-06-19T00:05:33;22.10;51.50
62809;DHT22;48848;39.002;-94.584;2023-06-19T00:07:59;22.10;48.30
62809;DHT22;48848;39.002;-94.584;2023-06-19T00:10:25;22.20;47.70
62809;DHT22;48848;39.002;-94.584;2023-06-19T00:12:50;22.30;47.40
62809;DHT22;48848;39.002;-94.584;2023-06-19T00:15:16;22.40;46.80
62809;DHT22;48848;39.002;-94.584;2023-06-19T00:17:42;22.50;46.60
62809;DHT22;48848;39.002;-94.584;2023-06-19T00:20:09;22.60;46.50
62809;DHT22;48848;39.002;-94.584;2023-06-19T00:22:35;22.80;46.60
62809;DHT22;48848;39.002;-94.584;2023-06-19T00:25:01;23.00;46.60
62809;DHT22;48848;39.002;-94.584;2023-06-19T00:27:26;23.10;46.40
62809;DHT22;48848;39.002;-94.584;2023-06-19T00:29:52;23.20;46.40
62809;DHT22;48848;39.002;-94.584;2023-06-19T00:32:18;23.20;46.50
62809;DHT22;48848;39.002;-94.584;2023-06-19T00:34:44;23.20;46.80
62809;DHT22;48848;39.002;-94.584;2023-06-19T00:37:10;23.10;46.60
62809;DHT22;48848;39.002;-94.584;2023-06-19T00:39:41;23.10;46.60
62809;DHT22;48848;39.002;-94.584;2023-06-19T00:42:07;23.10;46.60
62809;DHT22;48848;39.002;-94.584;2023-06-19T00:44:32;23.10;46.70
62809;DHT22;48848;39.002;-94.584;2023-06-19T00:46:59;23.40;48.10
62809;DHT22;48848;39.002;-94.584;2023-06-19T00:49:26;23.60;44.40
62809;DHT22;48848;39.002;-94.584;2023-06-19T00:51:52;23.50;42.60
62809;DHT22;48848;39.002;-94.584;2023-06-19T00:54:18;23.30;42.00
62809;DHT22;48848;39.002;-94.584;2023-06-19T00:56:44;23.10;42.10
62809;DHT22;48848;39.002;-94.584;2023-06-19T00:59:18;22.90;42.40
62809;DHT22;48848;39.002;-94.584;2023-06-19T01:01:44;22.80;42.20
62809;DHT22;48848;39.002;-94.584;2023-06-19T01:04:10;22.60;42.30
62809;DHT22;48848;39.002;-94.584;2023-06-19T01:06:55;22.60;42.30
62809;DHT22;48848;39.002;-94.584;2023-06-19T01:09:26;22.40;42.40
62809;DHT22;48848;39.002;-94.584;2023-06-19T01:11:54;22.30;42.40
62809;DHT22;48848;39.002;-94.584;2023-06-19T01:14:38;22.20;42.50
62809;DHT22;48848;39.002;-94.584;2023-06-19T01:17:05;22.20;42.50
62809;DHT22;48848;39.002;-94.584;2023-06-19T01:19:31;22.10;42.40
62809;DHT22;48848;39.002;-94.584;2023-06-19T01:24:23;22.00;42.50
62809;DHT22;48848;39.002;-94.584;2023-06-19T01:26:48;22.00;42.40
62809;DHT22;48848;39.002;-94.584;2023-06-19T01:29:14;21.90;43.50
62809;DHT22;48848;39.002;-94.584;2023-06-19T01:34:09;22.10;54.60
62809;DHT22;48848;39.002;-94.584;2023-06-19T01:36:36;22.20;49.80
62809;DHT22;48848;39.002;-94.584;2023-06-19T01:39:02;22.40;47.60
62809;DHT22;48848;39.002;-94.584;2023-06-19T01:41:28;22.40;44.60
62809;DHT22;48848;39.002;-94.584;2023-06-19T01:43:55;22.20;43.50
62809;DHT22;48848;39.002;-94.584;2023-06-19T01:46:22;22.10;43.10
62809;DHT22;48848;39.002;-94.584;2023-06-19T01:48:48;22.00;43.10
62809;DHT22;48848;39.002;-94.584;2023-06-19T01:51:14;22.00;43.20
62809;DHT22;48848;39.002;-94.584;2023-06-19T01:53:40;21.90;43.70
62809;DHT22;48848;39.002;-94.584;2023-06-19T01:56:06;21.90;42.80
62809;DHT22;48848;39.002;-94.584;2023-06-19T01:58:32;22.00;42.80
62809;DHT22;48848;39.002;-94.584;2023-06-19T02:00:58;22.10;43.20
62809;DHT22;48848;39.002;-94.584;2023-06-19T02:03:23;22.10;42.10
62809;DHT22;48848;39.002;-94.584;2023-06-19T02:05:49;22.20;42.00
62809;DHT22;48848;39.002;-94.584;2023-06-19T02:08:15;22.10;41.60
62809;DHT22;48848;39.002;-94.584;2023-06-19T02:10:41;22.00;41.60
62809;DHT22;48848;39.002;-94.584;2023-06-19T02:13:07;22.10;41.70
62809;DHT22;48848;39.002;-94.584;2023-06-19T02:15:33;22.00;41.60
62809;DHT22;48848;39.002;-94.584;2023-06-19T02:17:59;22.00;41.40
62809;DHT22;48848;39.002;-94.584;2023-06-19T02:20:25;22.00;41.30
62809;DHT22;48848;39.002;-94.584;2023-06-19T02:22:51;21.90;45.70
62809;DHT22;48848;39.002;-94.584;2023-06-19T02:25:17;22.10;51.50
62809;DHT22;48848;39.002;-94.584;2023-06-19T02:27:43;22.40;53.00
62809;DHT22;48848;39.002;-94.584;2023-06-19T02:30:09;22.60;48.40
62809;DHT22;48848;39.002;-94.584;2023-06-19T02:32:35;22.90;46.70
62809;DHT22;48848;39.002;-94.584;2023-06-19T02:35:01;23.00;45.80
62809;DHT22;48848;39.002;-94.584;2023-06-19T02:37:27;23.20;45.50
62809;DHT22;48848;39.002;-94.584;2023-06-19T02:39:55;23.30;45.20
62809;DHT22;48848;39.002;-94.584;2023-06-19T02:42:21;23.40;45.00
62809;DHT22;48848;39.002;-94.584;2023-06-19T02:44:46;23.50;43.70
62809;DHT22;48848;39.002;-94.584;2023-06-19T02:47:12;23.30;41.10
62809;DHT22;48848;39.002;-94.584;2023-06-19T02:49:38;23.00;40.70
62809;DHT22;48848;39.002;-94.584;2023-06-19T02:52:04;22.80;40.90
62809;DHT22;48848;39.002;-94.584;2023-06-19T02:54:31;22.60;40.80
62809;DHT22;48848;39.002;-94.584;2023-06-19T02:56:56;22.40;40.90
62809;DHT22;48848;39.002;-94.584;2023-06-19T02:59:22;22.30;41.00
62809;DHT22;48848;39.002;-94.584;2023-06-19T03:01:48;22.30;47.80
62809;DHT22;48848;39.002;-94.584;2023-06-19T03:04:14;22.40;52.20
62809;DHT22;48848;39.002;-94.584;2023-06-19T03:06:40;22.60;51.30
62809;DHT22;48848;39.002;-94.584;2023-06-19T03:09:06;22.80;47.80
62809;DHT22;48848;39.002;-94.584;2023-06-19T03:11:40;23.00;46.80
62809;DHT22;48848;39.002;-94.584;2023-06-19T03:14:07;23.20;46.10
62809;DHT22;48848;39.002;-94.584;2023-06-19T03:16:33;23.30;45.60
62809;DHT22;48848;39.002;-94.584;2023-06-19T03:18:59;23.40;45.40
62809;DHT22;48848;39.002;-94.584;2023-06-19T03:21:25;23.50;45.20
62809;DHT22;48848;39.002;-94.584;2023-06-19T03:23:51;23.60;45.10
62809;DHT22;48848;39.002;-94.584;2023-06-19T03:26:18;23.60;45.10
62809;DHT22;48848;39.002;-94.584;2023-06-19T03:28:43;23.70;45.10
62809;DHT22;48848;39.002;-94.584;2023-06-19T03:31:09;23.80;45.00
62809;DHT22;48848;39.002;-94.584;2023-06-19T03:33:35;23.80;45.00
62809;DHT22;48848;39.002;-94.584;2023-06-19T03:36:01;23.80;45.90
62809;DHT22;48848;39.002;-94.584;2023-06-19T03:38:27;23.90;44.90
62809;DHT22;48848;39.002;-94.584;2023-06-19T03:40:53;24.00;45.00
62809;DHT22;48848;39.002;-94.584;2023-06-19T03:43:18;24.00;45.10
62809;DHT22;48848;39.002;-94.584;2023-06-19T03:45:44;24.00;45.00
62809;DHT22;48848;39.002;-94.584;2023-06-19T03:48:10;24.10;44.90
62809;DHT22;48848;39.002;-94.584;2023-06-19T03:50:36;24.10;44.80
62809;DHT22;48848;39.002;-94.584;2023-06-19T03:53:02;24.10;44.70
62809;DHT22;48848;39.002;-94.584;2023-06-19T03:55:28;24.30;44.70
62809;DHT22;48848;39.002;-94.584;2023-06-19T03:57:54;24.20;45.00
62809;DHT22;48848;39.002;-94.584;2023-06-19T04:00:20;24.00;45.50
62809;DHT22;48848;39.002;-94.584;2023-06-19T04:02:46;23.80;46.10
62809;DHT22;48848;39.002;-94.584;2023-06-19T04:05:11;23.80;46.40
62809;DHT22;48848;39.002;-94.584;2023-06-19T04:07:37;23.80;46.30
62809;DHT22;48848;39.002;-94.584;2023-06-19T04:10:03;23.60;46.60
62809;DHT22;48848;39.002;-94.584;2023-06-19T04:12:29;23.60;46.80
62809;DHT22;48848;39.002;-94.584;2023-06-19T04:14:55;23.50;47.20
62809;DHT22;48848;39.002;-94.584;2023-06-19T04:17:21;23.40;47.30
62809;DHT22;48848;39.002;-94.584;2023-06-19T04:19:47;23.40;48.20
62809;DHT22;48848;39.002;-94.584;2023-06-19T04:22:13;23.20;47.80
62809;DHT22;48848;39.002;-94.584;2023-06-19T04:24:38;23.10;48.00
62809;DHT22;48848;39.002;-94.584;2023-06-19T04:27:04;23.00;48.10
62809;DHT22;48848;39.002;-94.584;2023-06-19T04:29:31;23.10;48.30
62809;DHT22;48848;39.002;-94.584;2023-06-19T04:31:58;23.00;48.30
62809;DHT22;48848;39.002;-94.584;2023-06-19T04:34:24;23.10;48.30
62809;DHT22;48848;39.002;-94.584;2023-06-19T04:36:51;23.10;48.40
62809;DHT22;48848;39.002;-94.584;2023-06-19T04:39:17;23.40;45.50
62809;DHT22;48848;39.002;-94.584;2023-06-19T04:41:43;23.50;42.30
62809;DHT22;48848;39.002;-94.584;2023-06-19T04:44:12;23.40;41.30
62809;DHT22;48848;39.002;-94.584;2023-06-19T04:46:38;23.20;41.40
62809;DHT22;48848;39.002;-94.584;2023-06-19T04:49:04;23.00;41.60
62809;DHT22;48848;39.002;-94.584;2023-06-19T04:51:30;22.90;41.30
62809;DHT22;48848;39.002;-94.584;2023-06-19T04:54:01;22.70;41.50
62809;DHT22;48848;39.002;-94.584;2023-06-19T04:56:27;22.50;41.70
62809;DHT22;48848;39.002;-94.584;2023-06-19T04:58:54;22.40;41.70
62809;DHT22;48848;39.002;-94.584;2023-06-19T05:01:25;22.30;46.00
62809;DHT22;48848;39.002;-94.584;2023-06-19T05:03:54;22.30;45.70
62809;DHT22;48848;39.002;-94.584;2023-06-19T05:06:21;22.40;45.70
62809;DHT22;48848;39.002;-94.584;2023-06-19T05:08:47;22.40;45.70
62809;DHT22;48848;39.002;-94.584;2023-06-19T05:11:13;22.50;46.40
62809;DHT22;48848;39.002;-94.584;2023-06-19T05:13:39;22.50;46.60
62809;DHT22;48848;39.002;-94.584;2023-06-19T05:16:04;22.50;46.40
62809;DHT22;48848;39.002;-94.584;2023-06-19T05:18:30;22.60;46.10
62809;DHT22;48848;39.002;-94.584;2023-06-19T05:20:56;22.60;46.10
62809;DHT22;48848;39.002;-94.584;2023-06-19T05:23:22;22.60;46.40
62809;DHT22;48848;39.002;-94.584;2023-06-19T05:25:48;22.60;46.20
62809;DHT22;48848;39.002;-94.584;2023-06-19T05:28:14;22.70;46.30
62809;DHT22;48848;39.002;-94.584;2023-06-19T05:30:39;22.70;46.40
62809;DHT22;48848;39.002;-94.584;2023-06-19T05:33:05;22.80;46.40
62809;DHT22;48848;39.002;-94.584;2023-06-19T05:35:31;22.80;46.90
62809;DHT22;48848;39.002;-94.584;2023-06-19T05:37:57;22.90;47.20
62809;DHT22;48848;39.002;-94.584;2023-06-19T05:40:23;22.90;47.10
62809;DHT22;48848;39.002;-94.584;2023-06-19T05:42:49;22.80;46.60
62809;DHT22;48848;39.002;-94.584;2023-06-19T05:45:15;22.90;46.60
62809;DHT22;48848;39.002;-94.584;2023-06-19T05:47:40;22.80;46.60
62809;DHT22;48848;39.002;-94.584;2023-06-19T05:50:06;23.20;42.60
62809;DHT22;48848;39.002;-94.584;2023-06-19T05:52:32;23.20;41.10
62809;DHT22;48848;39.002;-94.584;2023-06-19T05:54:58;23.10;40.70
62809;DHT22;48848;39.002;-94.584;2023-06-19T05:57:24;22.90;40.50
62809;DHT22;48848;39.002;-94.584;2023-06-19T05:59:50;22.70;40.50
62809;DHT22;48848;39.002;-94.584;2023-06-19T06:02:19;22.50;45.60
62809;DHT22;48848;39.002;-94.584;2023-06-19T06:04:45;22.60;51.50
62809;DHT22;48848;39.002;-94.584;2023-06-19T06:07:11;22.60;52.90
62809;DHT22;48848;39.002;-94.584;2023-06-19T06:09:37;22.60;48.80
62809;DHT22;48848;39.002;-94.584;2023-06-19T06:12:04;22.50;48.60
62809;DHT22;48848;39.002;-94.584;2023-06-19T06:14:29;22.40;49.20
62809;DHT22;48848;39.002;-94.584;2023-06-19T06:16:55;22.40;49.00
62809;DHT22;48848;39.002;-94.584;2023-06-19T06:19:21;22.40;48.90
62809;DHT22;48848;39.002;-94.584;2023-06-19T06:21:50;22.50;48.60
62809;DHT22;48848;39.002;-94.584;2023-06-19T06:24:16;22.60;48.80
62809;DHT22;48848;39.002;-94.584;2023-06-19T06:26:42;22.60;49.20
62809;DHT22;48848;39.002;-94.584;2023-06-19T06:29:08;22.60;49.40
62809;DHT22;48848;39.002;-94.584;2023-06-19T06:31:37;22.60;48.90
62809;DHT22;48848;39.002;-94.584;2023-06-19T06:34:03;22.70;48.20
62809;DHT22;48848;39.002;-94.584;2023-06-19T06:36:29;22.70;48.00
62809;DHT22;48848;39.002;-94.584;2023-06-19T06:38:55;22.70;48.00
62809;DHT22;48848;39.002;-94.584;2023-06-19T06:41:21;22.80;47.80
62809;DHT22;48848;39.002;-94.584;2023-06-19T06:43:47;22.80;47.90
62809;DHT22;48848;39.002;-94.584;2023-06-19T06:46:13;22.80;48.00
62809;DHT22;48848;39.002;-94.584;2023-06-19T06:48:39;22.80;48.20
62809;DHT22;48848;39.002;-94.584;2023-06-19T06:51:05;22.80;48.90
62809;DHT22;48848;39.002;-94.584;2023-06-19T06:53:31;22.80;49.00
62809;DHT22;48848;39.002;-94.584;2023-06-19T06:55:58;22.80;49.30
62809;DHT22;48848;39.002;-94.584;2023-06-19T06:58:25;22.70;48.60
62809;DHT22;48848;39.002;-94.584;2023-06-19T07:00:50;22.70;48.20
62809;DHT22;48848;39.002;-94.584;2023-06-19T07:03:17;22.80;48.40
62809;DHT22;48848;39.002;-94.584;2023-06-19T07:05:43;22.80;48.50
62809;DHT22;48848;39.002;-94.584;2023-06-19T07:08:09;22.80;48.40
62809;DHT22;48848;39.002;-94.584;2023-06-19T07:10:35;22.80;48.20
62809;DHT22;48848;39.002;-94.584;2023-06-19T07:13:01;22.90;48.50
62809;DHT22;48848;39.002;-94.584;2023-06-19T07:15:27;22.90;48.50
62809;DHT22;48848;39.002;-94.584;2023-06-19T07:17:53;22.90;48.70
62809;DHT22;48848;39.002;-94.584;2023-06-19T07:20:19;22.90;49.30
62809;DHT22;48848;39.002;-94.584;2023-06-19T07:22:45;22.90;48.80
62809;DHT22;48848;39.002;-94.584;2023-06-19T07:25:11;22.80;48.00
62809;DHT22;48848;39.002;-94.584;2023-06-19T07:27:37;22.90;48.10
62809;DHT22;48848;39.002;-94.584;2023-06-19T07:30:03;22.90;48.50
62809;DHT22;48848;39.002;-94.584;2023-06-19T07:32:29;22.90;48.70
62809;DHT22;48848;39.002;-94.584;2023-06-19T07:34:55;22.90;48.30
62809;DHT22;48848;39.002;-94.584;2023-06-19T07:37:21;22.90;48.20
62809;DHT22;48848;39.002;-94.584;2023-06-19T07:39:50;22.90;48.70
62809;DHT22;48848;39.002;-94.584;2023-06-19T07:42:17;23.00;48.70
62809;DHT22;48848;39.002;-94.584;2023-06-19T07:44:43;23.00;49.20
62809;DHT22;48848;39.002;-94.584;2023-06-19T07:47:08;23.00;49.50
62809;DHT22;48848;39.002;-94.584;2023-06-19T07:49:34;22.90;48.40
62809;DHT22;48848;39.002;-94.584;2023-06-19T07:52:00;22.90;48.80
62809;DHT22;48848;39.002;-94.584;2023-06-19T07:54:26;22.90;48.30
62809;DHT22;48848;39.002;-94.584;2023-06-19T07:56:52;22.90;48.50
62809;DHT22;48848;39.002;-94.584;2023-06-19T07:59:18;22.90;48.50
62809;DHT22;48848;39.002;-94.584;2023-06-19T08:01:44;22.90;48.50
62809;DHT22;48848;39.002;-94.584;2023-06-19T08:04:10;22.90;48.80
62809;DHT22;48848;39.002;-94.584;2023-06-19T08:06:36;23.00;48.90
62809;DHT22;48848;39.002;-94.584;2023-06-19T08:09:02;23.00;49.00
62809;DHT22;48848;39.002;-94.584;2023-06-19T08:11:28;23.00;48.70
62809;DHT22;48848;39.002;-94.584;2023-06-19T08:13:54;23.00;48.80
62809;DHT22;48848;39.002;-94.584;2023-06-19T08:16:19;23.00;48.60
62809;DHT22;48848;39.002;-94.584;2023-06-19T08:18:46;23.00;48.60
62809;DHT22;48848;39.002;-94.584;2023-06-19T08:21:12;23.00;48.80
62809;DHT22;48848;39.002;-94.584;2023-06-19T08:23:38;23.00;48.60
62809;DHT22;48848;39.002;-94.584;2023-06-19T08:26:05;22.90;48.60
62809;DHT22;48848;39.002;-94.584;2023-06-19T08:28:33;23.00;49.00
62809;DHT22;48848;39.002;-94.584;2023-06-19T08:31:00;23.00;49.50
62809;DHT22;48848;39.002;-94.584;2023-06-19T08:33:25;23.10;49.00
62809;DHT22;48848;39.002;-94.584;2023-06-19T08:35:51;23.10;49.10
62809;DHT22;48848;39.002;-94.584;2023-06-19T08:38:18;23.10;49.20
62809;DHT22;48848;39.002;-94.584;2023-06-19T08:40:44;23.10;48.80
62809;DHT22;48848;39.002;-94.584;2023-06-19T08:43:10;23.10;49.10
62809;DHT22;48848;39.002;-94.584;2023-06-19T08:45:36;23.10;49.00
62809;DHT22;48848;39.002;-94.584;2023-06-19T08:48:03;23.00;49.10
62809;DHT22;48848;39.002;-94.584;2023-06-19T08:50:29;23.00;49.00
62809;DHT22;48848;39.002;-94.584;2023-06-19T08:52:56;23.10;49.40
62809;DHT22;48848;39.002;-94.584;2023-06-19T08:55:23;23.00;49.40
62809;DHT22;48848;39.002;-94.584;2023-06-19T08:57:49;23.10;49.10
62809;DHT22;48848;39.002;-94.584;2023-06-19T09:02:50;23.20;48.90
62809;DHT22;48848;39.002;-94.584;2023-06-19T09:05:17;23.10;48.80
62809;DHT22;48848;39.002;-94.584;2023-06-19T09:07:44;23.10;49.20
62809;DHT22;48848;39.002;-94.584;2023-06-19T09:10:14;23.10;48.70
62809;DHT22;48848;39.002;-94.584;2023-06-19T09:12:41;23.10;48.70
62809;DHT22;48848;39.002;-94.584;2023-06-19T09:15:14;23.10;49.00
62809;DHT22;48848;39.002;-94.584;2023-06-19T09:17:40;23.20;48.80
62809;DHT22;48848;39.002;-94.584;2023-06-19T09:20:06;23.10;49.00
62809;DHT22;48848;39.002;-94.584;2023-06-19T09:22:32;23.20;49.00
62809;DHT22;48848;39.002;-94.584;2023-06-19T09:25:01;23.20;49.10
62809;DHT22;48848;39.002;-94.584;2023-06-19T09:27:31;23.20;49.00
62809;DHT22;48848;39.002;-94.584;2023-06-19T09:29:57;23.10;49.00
62809;DHT22;48848;39.002;-94.584;2023-06-19T09:32:27;23.20;49.10
62809;DHT22;48848;39.002;-94.584;2023-06-19T09:34:57;23.10;49.20
62809;DHT22;48848;39.002;-94.584;2023-06-19T09:37:27;23.10;49.30
62809;DHT22;48848;39.002;-94.584;2023-06-19T09:39:54;23.10;49.20
62809;DHT22;48848;39.002;-94.584;2023-06-19T09:42:24;23.20;49.30
62809;DHT22;48848;39.002;-94.584;2023-06-19T09:44:51;23.10;49.40
62809;DHT22;48848;39.002;-94.584;2023-06-19T09:47:21;23.20;49.50
62809;DHT22;48848;39.002;-94.584;2023-06-19T09:49:53;23.20;49.50
62809;DHT22;48848;39.002;-94.584;2023-06-19T09:52:20;23.10;49.30
62809;DHT22;48848;39.002;-94.584;2023-06-19T09:54:49;23.20;49.50
62809;DHT22;48848;39.002;-94.584;2023-06-19T09:57:15;23.20;49.10
62809;DHT22;48848;39.002;-94.584;2023-06-19T09:59:41;23.20;49.00
62809;DHT22;48848;39.002;-94.584;2023-06-19T10:02:08;23.20;48.90
62809;DHT22;48848;39.002;-94.584;2023-06-19T10:04:50;23.20;49.30
62809;DHT22;48848;39.002;-94.584;2023-06-19T10:07:17;23.20;49.40
62809;DHT22;48848;39.002;-94.584;2023-06-19T10:12:22;23.30;48.10
62809;DHT22;48848;39.002;-94.584;2023-06-19T10:14:47;23.20;49.20
62809;DHT22;48848;39.002;-94.584;2023-06-19T10:17:16;23.20;49.20
62809;DHT22;48848;39.002;-94.584;2023-06-19T10:19:49;23.20;49.40
62809;DHT22;48848;39.002;-94.584;2023-06-19T10:22:19;23.20;49.60
62809;DHT22;48848;39.002;-94.584;2023-06-19T10:24:49;23.20;49.30
62809;DHT22;48848;39.002;-94.584;2023-06-19T10:27:20;23.20;49.50
62809;DHT22;48848;39.002;-94.584;2023-06-19T10:29:51;23.20;49.20
62809;DHT22;48848;39.002;-94.584;2023-06-19T10:32:17;23.20;49.30
62809;DHT22;48848;39.002;-94.584;2023-06-19T10:34:45;23.10;49.40
62809;DHT22;48848;39.002;-94.584;2023-06-19T10:37:12;23.10;49.00
62809;DHT22;48848;39.002;-94.584;2023-06-19T10:39:38;23.20;48.50
62809;DHT22;48848;39.002;-94.584;2023-06-19T10:42:07;23.30;48.30
62809;DHT22;48848;39.002;-94.584;2023-06-19T10:44:33;23.20;48.00
62809;DHT22;48848;39.002;-94.584;2023-06-19T10:47:00;23.30;49.00
62809;DHT22;48848;39.002;-94.584;2023-06-19T10:49:26;23.30;47.90
62809;DHT22;48848;39.002;-94.584;2023-06-19T10:51:52;23.30;48.20
62809;DHT22;48848;39.002;-94.584;2023-06-19T10:54:24;23.30;48.60
62809;DHT22;48848;39.002;-94.584;2023-06-19T10:56:50;23.30;47.70
62809;DHT22;48848;39.002;-94.584;2023-06-19T10:59:16;23.40;47.50
62809;DHT22;48848;39.002;-94.584;2023-06-19T11:01:47;23.40;47.40
62809;DHT22;48848;39.002;-94.584;2023-06-19T11:04:15;23.40;47.30
62809;DHT22;48848;39.002;-94.584;2023-06-19T11:06:41;23.40;47.50
62809;DHT22;48848;39.002;-94.584;2023-06-19T11:09:08;23.40;47.50
62809;DHT22;48848;39.002;-94.584;2023-06-19T11:11:43;23.40;47.60
62809;DHT22;48848;39.002;-94.584;2023-06-19T11:14:10;23.40;47.70
62809;DHT22;48848;39.002;-94.584;2023-06-19T11:16:39;23.40;47.60
62809;DHT22;48848;39.002;-94.584;2023-06-19T11:19:09;23.40;47.60
62809;DHT22;48848;39.002;-94.584;2023-06-19T11:21:36;23.40;47.90
62809;DHT22;48848;39.002;-94.584;2023-06-19T11:24:04;23.40;47.90
62809;DHT22;48848;39.002;-94.584;2023-06-19T11:26:34;23.40;48.60
62809;DHT22;48848;39.002;-94.584;2023-06-19T11:29:01;23.40;47.50
62809;DHT22;48848;39.002;-94.584;2023-06-19T11:31:28;23.40;47.40
62809;DHT22;48848;39.002;-94.584;2023-06-19T11:34:00;23.40;47.50
62809;DHT22;48848;39.002;-94.584;2023-06-19T11:36:29;23.40;47.60
62809;DHT22;48848;39.002;-94.584;2023-06-19T11:38:55;23.40;47.70
62809;DHT22;48848;39.002;-94.584;2023-06-19T11:41:27;23.40;47.50
62809;DHT22;48848;39.002;-94.584;2023-06-19T11:44:00;23.40;47.50
62809;DHT22;48848;39.002;-94.584;2023-06-19T11:46:29;23.40;47.50
62809;DHT22;48848;39.002;-94.584;2023-06-19T11:48:56;23.40;47.80
62809;DHT22;48848;39.002;-94.584;2023-06-19T11:51:21;23.30;47.70
62809;DHT22;48848;39.002;-94.584;2023-06-19T11:53:47;23.40;47.70
62809;DHT22;48848;39.002;-94.584;2023-06-19T11:56:13;23.30;47.60
62809;DHT22;48848;39.002;-94.584;2023-06-19T11:58:39;23.40;47.70
62809;DHT22;48848;39.002;-94.584;2023-06-19T12:01:05;23.40;47.60
62809;DHT22;48848;39.002;-94.584;2023-06-19T12:03:31;23.40;47.50
62809;DHT22;48848;39.002;-94.584;2023-06-19T12:05:57;23.40;47.50
62809;DHT22;48848;39.002;-94.584;2023-06-19T12:08:23;23.40;47.40
62809;DHT22;48848;39.002;-94.584;2023-06-19T12:10:48;23.50;47.50
62809;DHT22;48848;39.002;-94.584;2023-06-19T12:13:15;23.40;47.50
62809;DHT22;48848;39.002;-94.584;2023-06-19T12:15:40;23.40;47.50
62809;DHT22;48848;39.002;-94.584;2023-06-19T12:18:06;23.40;47.70
62809;DHT22;48848;39.002;-94.584;2023-06-19T12:20:33;23.40;47.50
62809;DHT22;48848;39.002;-94.584;2023-06-19T12:22:59;23.50;47.50
62809;DHT22;48848;39.002;-94.584;2023-06-19T12:25:24;23.40;47.50
62809;DHT22;48848;39.002;-94.584;2023-06-19T12:27:50;23.50;47.40
62809;DHT22;48848;39.002;-94.584;2023-06-19T12:30:16;23.50;47.30
62809;DHT22;48848;39.002;-94.584;2023-06-19T12:32:42;23.40;47.20
62809;DHT22;48848;39.002;-94.584;2023-06-19T12:35:08;23.50;47.50
62809;DHT22;48848;39.002;-94.584;2023-06-19T12:37:34;23.50;47.20
62809;DHT22;48848;39.002;-94.584;2023-06-19T12:40:00;23.50;47.10
62809;DHT22;48848;39.002;-94.584;2023-06-19T12:42:26;23.50;47.40
62809;DHT22;48848;39.002;-94.584;2023-06-19T12:44:52;23.50;47.30
62809;DHT22;48848;39.002;-94.584;2023-06-19T12:47:18;23.60;48.20
62809;DHT22;48848;39.002;-94.584;2023-06-19T12:49:44;23.50;47.30
62809;DHT22;48848;39.002;-94.584;2023-06-19T12:52:09;23.50;47.10
62809;DHT22;48848;39.002;-94.584;2023-06-19T12:54:35;23.60;47.10
62809;DHT22;48848;39.002;-94.584;2023-06-19T12:57:01;23.40;47.30
62809;DHT22;48848;39.002;-94.584;2023-06-19T12:59:27;23.40;47.20
62809;DHT22;48848;39.002;-94.584;2023-06-19T13:01:54;23.50;47.30
62809;DHT22;48848;39.002;-94.584;2023-06-19T13:04:20;23.60;47.00
62809;DHT22;48848;39.002;-94.584;2023-06-19T13:06:46;23.70;47.00
62809;DHT22;48848;39.002;-94.584;2023-06-19T13:09:12;23.60;47.10
62809;DHT22;48848;39.002;-94.584;2023-06-19T13:11:38;23.50;47.00
62809;DHT22;48848;39.002;-94.584;2023-06-19T13:14:04;23.40;47.30
62809;DHT22;48848;39.002;-94.584;2023-06-19T13:16:30;23.50;47.30
62809;DHT22;48848;39.002;-94.584;2023-06-19T13:18:57;23.60;47.10
62809;DHT22;48848;39.002;-94.584;2023-06-19T13:21:22;23.70;47.00
62809;DHT22;48848;39.002;-94.584;2023-06-19T13:23:48;23.60;46.80
62809;DHT22;48848;39.002;-94.584;2023-06-19T13:26:15;23.70;47.00
62809;DHT22;48848;39.002;-94.584;2023-06-19T13:28:40;23.70;47.00
62809;DHT22;48848;39.002;-94.584;2023-06-19T13:31:06;23.60;46.90
62809;DHT22;48848;39.002;-94.584;2023-06-19T13:33:32;23.80;47.00
62809;DHT22;48848;39.002;-94.584;2023-06-19T13:35:58;23.80;46.60
62809;DHT22;48848;39.002;-94.584;2023-06-19T13:38:24;23.70;47.10
62809;DHT22;48848;39.002;-94.584;2023-06-19T13:40:50;23.60;47.20
62809;DHT22;48848;39.002;-94.584;2023-06-19T13:43:15;23.60;47.50
62809;DHT22;48848;39.002;-94.584;2023-06-19T13:45:42;23.60;47.20
62809;DHT22;48848;39.002;-94.584;2023-06-19T13:48:08;23.80;47.30
62809;DHT22;48848;39.002;-94.584;2023-06-19T13:50:33;23.80;47.30
62809;DHT22;48848;39.002;-94.584;2023-06-19T13:53:00;23.60;47.40
62809;DHT22;48848;39.002;-94.584;2023-06-19T13:55:26;23.40;48.00
62809;DHT22;48848;39.002;-94.584;2023-06-19T13:57:52;23.60;47.90
62809;DHT22;48848;39.002;-94.584;2023-06-19T14:00:18;23.50;48.10
62809;DHT22;48848;39.002;-94.584;2023-06-19T14:02:44;23.50;48.10
62809;DHT22;48848;39.002;-94.584;2023-06-19T14:05:10;23.60;48.20
62809;DHT22;48848;39.002;-94.584;2023-06-19T14:07:36;23.50;48.10
62809;DHT22;48848;39.002;-94.584;2023-06-19T14:10:02;23.50;48.30
62809;DHT22;48848;39.002;-94.584;2023-06-19T14:12:29;23.60;48.30
62809;DHT22;48848;39.002;-94.584;2023-06-19T14:14:56;23.70;48.20
62809;DHT22;48848;39.002;-94.584;2023-06-19T14:17:22;23.60;48.60
62809;DHT22;48848;39.002;-94.584;2023-06-19T14:19:48;23.60;48.30
62809;DHT22;48848;39.002;-94.584;2023-06-19T14:22:14;23.60;48.30
62809;DHT22;48848;39.002;-94.584;2023-06-19T14:24:40;23.60;48.60
62809;DHT22;48848;39.002;-94.584;2023-06-19T14:27:05;23.50;48.70
62809;DHT22;48848;39.002;-94.584;2023-06-19T14:29:31;23.60;48.70
62809;DHT22;48848;39.002;-94.584;2023-06-19T14:31:57;23.60;48.30
62809;DHT22;48848;39.002;-94.584;2023-06-19T14:34:23;23.50;48.50
62809;DHT22;48848;39.002;-94.584;2023-06-19T14:36:49;23.60;48.50
62809;DHT22;48848;39.002;-94.584;2023-06-19T14:39:15;23.50;48.70
62809;DHT22;48848;39.002;-94.584;2023-06-19T14:41:41;23.60;48.80
62809;DHT22;48848;39.002;-94.584;2023-06-19T14:44:07;23.70;48.60
62809;DHT22;48848;39.002;-94.584;2023-06-19T14:46:33;23.60;48.80
62809;DHT22;48848;39.002;-94.584;2023-06-19T14:49:11;23.50;49.20
62809;DHT22;48848;39.002;-94.584;2023-06-19T14:51:41;23.60;49.20
62809;DHT22;48848;39.002;-94.584;2023-06-19T14:54:07;23.50;49.10
62809;DHT22;48848;39.002;-94.584;2023-06-19T14:56:33;23.50;49.60
62809;DHT22;48848;39.002;-94.584;2023-06-19T14:58:59;23.50;49.70
62809;DHT22;48848;39.002;-94.584;2023-06-19T15:01:25;23.40;49.50
62809;DHT22;48848;39.002;-94.584;2023-06-19T15:03:51;23.40;49.60
62809;DHT22;48848;39.002;-94.584;2023-06-19T15:06:16;23.50;49.70
62809;DHT22;48848;39.002;-94.584;2023-06-19T15:08:42;23.50;49.50